sensor_id;sensor_type;location;lat;lon;timestamp;pressure;altitude;pressure_sealevel;temperature;humidity
9709;BME280;4893;42.024;23.098;2022-09-25T00:01:19;97297.78;;;9.77;100.00
9709;BME280;4893;42.024;23.098;2022-09-25T00:03:46;97308.94;;;9.77;100.00
9709;BME280;4893;42.024;23.098;2022-09-25T00:06:19;97306.34;;;9.69;100.00
9709;BME280;4893;42.024;23.098;2022-09-25T00:08:45;97289.31;;;9.59;100.00
9709;BME280;4893;42.024;23.098;2022-09-25T00:11:16;97290.94;;;9.60;100.00
9709;BME280;4893;42.024;23.098;2022-09-25T00:13:42;97288.63;;;9.41;100.00
9709;BME280;4893;42.024;23.098;2022-09-25T00:16:11;97289.59;;;9.40;100.00
9709;BME280;4893;42.024;23.098;2022-09-25T00:18:37;97276.13;;;9.28;100.00
9709;BME280;4893;42.024;23.098;2022-09-25T00:21:21;97281.47;;;9.27;100.00
9709;BME280;4893;42.024;23.098;2022-09-25T00:23:47;97276.88;;;9.13;100.00
9709;BME280;4893;42.024;23.098;2022-09-25T00:26:15;97276.88;;;9.13;100.00
9709;BME280;4893;42.024;23.098;2022-09-25T00:28:42;97278.34;;;9.07;100.00
9709;BME280;4893;42.024;23.098;2022-09-25T00:31:09;97278.00;;;9.02;100.00
9709;BME280;4893;42.024;23.098;2022-09-25T00:33:35;97279.25;;;8.98;100.00
9709;BME280;4893;42.024;23.098;2022-09-25T00:36:05;97273.25;;;8.90;100.00
9709;BME280;4893;42.024;23.098;2022-09-25T00:38:32;97278.28;;;8.91;100.00
9709;BME280;4893;42.024;23.098;2022-09-25T00:40:58;97270.31;;;8.85;100.00
9709;BME280;4893;42.024;23.098;2022-09-25T00:46:00;97276.72;;;8.73;100.00
9709;BME280;4893;42.024;23.098;2022-09-25T00:48:28;97268.78;;;8.74;100.00
9709;BME280;4893;42.024;23.098;2022-09-25T00:50:56;97270.53;;;8.66;100.00
9709;BME280;4893;42.024;23.098;2022-09-25T00:53:29;97271.97;;;8.60;100.00
9709;BME280;4893;42.024;23.098;2022-09-25T00:55:56;97274.34;;;8.54;100.00
9709;BME280;4893;42.024;23.098;2022-09-25T00:58:24;97276.09;;;8.45;100.00
9709;BME280;4893;42.024;23.098;2022-09-25T01:00:52;97270.91;;;8.45;100.00
9709;BME280;4893;42.024;23.098;2022-09-25T01:03:19;97280.19;;;8.56;100.00
9709;BME280;4893;42.024;23.098;2022-09-25T01:05:45;97278.94;;;8.34;100.00
9709;BME280;4893;42.024;23.098;2022-09-25T01:08:19;97274.06;;;8.31;100.00
9709;BME280;4893;42.024;23.098;2022-09-25T01:10:46;97267.97;;;8.22;100.00
9709;BME280;4893;42.024;23.098;2022-09-25T01:13:12;97256.69;;;8.23;100.00
9709;BME280;4893;42.024;23.098;2022-09-25T01:24:15;97260.53;;;8.19;100.00
9709;BME280;4893;42.024;23.098;2022-09-25T01:32:11;97255.66;;;8.16;100.00
9709;BME280;4893;42.024;23.098;2022-09-25T01:37:51;97261.72;;;8.07;100.00
9709;BME280;4893;42.024;23.098;2022-09-25T01:40:26;97262.84;;;8.05;100.00
9709;BME280;4893;42.024;23.098;2022-09-25T01:43:11;97276.97;;;8.10;100.00
9709;BME280;4893;42.024;23.098;2022-09-25T01:46:00;97270.25;;;8.00;100.00
9709;BME280;4893;42.024;23.098;2022-09-25T01:48:30;97275.50;;;7.90;100.00
9709;BME280;4893;42.024;23.098;2022-09-25T01:51:36;97273.94;;;7.80;100.00
9709;BME280;4893;42.024;23.098;2022-09-25T01:54:08;97269.31;;;7.83;100.00
9709;BME280;4893;42.024;23.098;2022-09-25T01:56:55;97269.31;;;7.83;100.00
9709;BME280;4893;42.024;23.098;2022-09-25T02:02:09;97272.25;;;7.88;100.00
9709;BME280;4893;42.024;23.098;2022-09-25T02:04:41;97272.78;;;7.92;100.00
9709;BME280;4893;42.024;23.098;2022-09-25T02:07:10;97260.44;;;7.86;100.00
9709;BME280;4893;42.024;23.098;2022-09-25T02:10:13;97270.28;;;7.82;100.00
9709;BME280;4893;42.024;23.098;2022-09-25T02:12:44;97272.84;;;7.82;100.00
9709;BME280;4893;42.024;23.098;2022-09-25T02:15:14;97272.72;;;7.66;100.00
9709;BME280;4893;42.024;23.098;2022-09-25T02:17:55;97276.09;;;7.67;100.00
9709;BME280;4893;42.024;23.098;2022-09-25T02:20:47;97268.94;;;7.61;100.00
9709;BME280;4893;42.024;23.098;2022-09-25T02:23:23;97275.69;;;7.54;100.00
9709;BME280;4893;42.024;23.098;2022-09-25T02:28:21;97266.59;;;7.50;100.00
9709;BME280;4893;42.024;23.098;2022-09-25T02:30:48;97265.53;;;7.43;100.00
9709;BME280;4893;42.024;23.098;2022-09-25T02:33:13;97275.09;;;7.42;100.00
9709;BME280;4893;42.024;23.098;2022-09-25T02:35:39;97270.06;;;7.41;100.00
9709;BME280;4893;42.024;23.098;2022-09-25T02:38:06;97274.03;;;7.35;100.00
9709;BME280;4893;42.024;23.098;2022-09-25T02:40:38;97272.41;;;7.34;100.00
9709;BME280;4893;42.024;23.098;2022-09-25T02:43:23;97267.81;;;7.28;100.00
9709;BME280;4893;42.024;23.098;2022-09-25T02:46:09;97262.94;;;7.25;100.00
9709;BME280;4893;42.024;23.098;2022-09-25T02:48:44;97263.16;;;7.32;100.00
9709;BME280;4893;42.024;23.098;2022-09-25T02:51:39;97254.03;;;7.37;100.00
9709;BME280;4893;42.024;23.098;2022-09-25T02:54:27;97259.28;;;7.45;100.00
9709;BME280;4893;42.024;23.098;2022-09-25T02:57:06;97265.25;;;7.46;100.00
9709;BME280;4893;42.024;23.098;2022-09-25T02:59:37;97265.47;;;7.52;100.00
9709;BME280;4893;42.024;23.098;2022-09-25T03:02:07;97251.38;;;7.47;100.00
9709;BME280;4893;42.024;23.098;2022-09-25T03:04:35;97273.03;;;7.63;100.00
9709;BME280;4893;42.024;23.098;2022-09-25T03:07:03;97267.56;;;7.66;100.00
9709;BME280;4893;42.024;23.098;2022-09-25T03:09:34;97268.94;;;7.61;100.00
9709;BME280;4893;42.024;23.098;2022-09-25T03:12:01;97260.53;;;7.59;100.00
9709;BME280;4893;42.024;23.098;2022-09-25T03:14:28;97230.34;;;7.42;100.00
9709;BME280;4893;42.024;23.098;2022-09-25T03:16:55;97246.44;;;7.53;100.00
9709;BME280;4893;42.024;23.098;2022-09-25T03:19:24;97264.44;;;7.63;100.00
9709;BME280;4893;42.024;23.098;2022-09-25T03:21:51;97263.91;;;7.59;100.00
9709;BME280;4893;42.024;23.098;2022-09-25T03:24:16;97260.66;;;7.57;100.00
9709;BME280;4893;42.024;23.098;2022-09-25T03:26:42;97240.53;;;7.43;100.00
9709;BME280;4893;42.024;23.098;2022-09-25T03:29:08;97257.06;;;7.50;100.00
9709;BME280;4893;42.024;23.098;2022-09-25T03:31:33;97253.44;;;7.43;100.00
9709;BME280;4893;42.024;23.098;2022-09-25T03:33:59;97259.88;;;7.39;100.00
9709;BME280;4893;42.024;23.098;2022-09-25T03:36:27;97253.06;;;7.38;100.00
9709;BME280;4893;42.024;23.098;2022-09-25T03:38:54;97252.91;;;7.40;100.00
9709;BME280;4893;42.024;23.098;2022-09-25T03:41:31;97256.91;;;7.34;100.00
9709;BME280;4893;42.024;23.098;2022-09-25T03:43:57;97257.19;;;7.31;100.00
9709;BME280;4893;42.024;23.098;2022-09-25T03:46:25;97253.28;;;7.27;100.00
9709;BME280;4893;42.024;23.098;2022-09-25T03:48:51;97257.31;;;7.30;100.00
9709;BME280;4893;42.024;23.098;2022-09-25T03:51:17;97265.91;;;7.30;100.00
9709;BME280;4893;42.024;23.098;2022-09-25T03:53:44;97267.50;;;7.31;100.00
9709;BME280;4893;42.024;23.098;2022-09-25T03:56:16;97269.16;;;7.32;100.00
9709;BME280;4893;42.024;23.098;2022-09-25T03:58:42;97276.69;;;7.26;100.00
9709;BME280;4893;42.024;23.098;2022-09-25T04:01:08;97284.13;;;7.29;100.00
9709;BME280;4893;42.024;23.098;2022-09-25T04:03:35;97282.94;;;7.23;100.00
9709;BME280;4893;42.024;23.098;2022-09-25T04:06:03;97258.56;;;7.08;100.00
9709;BME280;4893;42.024;23.098;2022-09-25T04:08:32;97277.97;;;7.12;100.00
9709;BME280;4893;42.024;23.098;2022-09-25T04:10:58;97284.25;;;7.10;100.00
9709;BME280;4893;42.024;23.098;2022-09-25T04:13:26;97285.91;;;7.01;100.00
9709;BME280;4893;42.024;23.098;2022-09-25T04:15:54;97280.31;;;7.05;100.00
9709;BME280;4893;42.024;23.098;2022-09-25T04:18:20;97284.31;;;7.00;100.00
9709;BME280;4893;42.024;23.098;2022-09-25T04:20:46;97277.25;;;6.92;100.00
9709;BME280;4893;42.024;23.098;2022-09-25T04:23:11;97279.44;;;6.97;100.00
9709;BME280;4893;42.024;23.098;2022-09-25T04:25:37;97274.78;;;7.00;100.00
9709;BME280;4893;42.024;23.098;2022-09-25T04:28:02;97281.56;;;7.01;100.00
9709;BME280;4893;42.024;23.098;2022-09-25T04:30:28;97228.22;;;6.65;100.00
9709;BME280;4893;42.024;23.098;2022-09-25T04:32:54;97299.66;;;7.01;100.00
9709;BME280;4893;42.024;23.098;2022-09-25T04:35:40;97296.91;;;7.03;100.00
9709;BME280;4893;42.024;23.098;2022-09-25T04:38:06;97300.59;;;7.00;100.00
9709;BME280;4893;42.024;23.098;2022-09-25T04:40:32;97275.94;;;6.88;100.00
9709;BME280;4893;42.024;23.098;2022-09-25T04:42:58;97298.41;;;7.05;100.00
9709;BME280;4893;42.024;23.098;2022-09-25T04:45:24;97299.50;;;7.03;100.00
9709;BME280;4893;42.024;23.098;2022-09-25T04:47:52;97297.47;;;7.07;100.00
9709;BME280;4893;42.024;23.098;2022-09-25T04:50:18;97297.59;;;7.05;100.00
9709;BME280;4893;42.024;23.098;2022-09-25T04:52:44;97292.00;;;7.10;100.00
9709;BME280;4893;42.024;23.098;2022-09-25T04:55:09;97307.28;;;7.21;100.00
9709;BME280;4893;42.024;23.098;2022-09-25T04:57:35;97302.38;;;7.27;100.00
9709;BME280;4893;42.024;23.098;2022-09-25T05:00:01;97301.38;;;7.28;100.00
9709;BME280;4893;42.024;23.098;2022-09-25T05:02:26;97307.28;;;7.21;100.00
9709;BME280;4893;42.024;23.098;2022-09-25T05:04:52;97296.72;;;7.14;100.00
9709;BME280;4893;42.024;23.098;2022-09-25T05:07:18;97295.66;;;7.07;100.00
9709;BME280;4893;42.024;23.098;2022-09-25T05:09:43;97281.38;;;6.85;100.00
9709;BME280;4893;42.024;23.098;2022-09-25T05:12:09;97287.53;;;7.02;100.00
9709;BME280;4893;42.024;23.098;2022-09-25T05:14:34;97294.63;;;7.00;100.00
9709;BME280;4893;42.024;23.098;2022-09-25T05:17:00;97295.97;;;7.04;100.00
9709;BME280;4893;42.024;23.098;2022-09-25T05:19:25;97310.03;;;7.19;100.00
9709;BME280;4893;42.024;23.098;2022-09-25T05:22:01;97293.69;;;7.19;100.00
9709;BME280;4893;42.024;23.098;2022-09-25T05:24:26;97297.19;;;7.27;100.00
9709;BME280;4893;42.024;23.098;2022-09-25T05:26:51;97295.94;;;7.31;100.00
9709;BME280;4893;42.024;23.098;2022-09-25T05:29:17;97285.03;;;7.37;100.00
9709;BME280;4893;42.024;23.098;2022-09-25T05:31:42;97287.25;;;7.32;100.00
9709;BME280;4893;42.024;23.098;2022-09-25T05:34:12;97272.66;;;7.41;100.00
9709;BME280;4893;42.024;23.098;2022-09-25T05:36:37;97279.94;;;7.45;100.00
9709;BME280;4893;42.024;23.098;2022-09-25T05:39:03;97272.78;;;7.57;100.00
9709;BME280;4893;42.024;23.098;2022-09-25T05:41:28;97272.88;;;7.65;100.00
9709;BME280;4893;42.024;23.098;2022-09-25T05:43:55;97273.94;;;7.80;100.00
9709;BME280;4893;42.024;23.098;2022-09-25T05:46:27;97280.75;;;7.98;100.00
9709;BME280;4893;42.024;23.098;2022-09-25T05:48:54;97276.97;;;8.10;100.00
9709;BME280;4893;42.024;23.098;2022-09-25T05:51:21;97292.13;;;8.49;100.00
9709;BME280;4893;42.024;23.098;2022-09-25T05:53:47;97279.75;;;9.02;100.00
9709;BME280;4893;42.024;23.098;2022-09-25T05:56:13;97288.66;;;9.65;100.00
9709;BME280;4893;42.024;23.098;2022-09-25T05:58:39;97303.81;;;10.18;100.00
9709;BME280;4893;42.024;23.098;2022-09-25T06:01:05;97308.13;;;10.73;100.00
9709;BME280;4893;42.024;23.098;2022-09-25T06:03:31;97292.03;;;11.25;100.00
9709;BME280;4893;42.024;23.098;2022-09-25T06:05:57;97295.63;;;11.85;100.00
9709;BME280;4893;42.024;23.098;2022-09-25T06:08:24;97296.41;;;12.45;100.00
9709;BME280;4893;42.024;23.098;2022-09-25T06:10:53;97293.44;;;13.14;100.00
9709;BME280;4893;42.024;23.098;2022-09-25T06:13:20;97299.94;;;13.75;100.00
9709;BME280;4893;42.024;23.098;2022-09-25T06:15:45;97304.16;;;14.33;95.57
9709;BME280;4893;42.024;23.098;2022-09-25T06:18:12;97302.22;;;14.75;92.92
9709;BME280;4893;42.024;23.098;2022-09-25T06:20:43;97308.81;;;15.33;87.46
9709;BME280;4893;42.024;23.098;2022-09-25T06:23:09;97284.19;;;15.21;84.15
9709;BME280;4893;42.024;23.098;2022-09-25T06:25:40;97309.09;;;15.10;84.10
9709;BME280;4893;42.024;23.098;2022-09-25T06:28:06;97303.03;;;15.10;85.51
9709;BME280;4893;42.024;23.098;2022-09-25T06:30:33;97285.41;;;15.25;85.92
9709;BME280;4893;42.024;23.098;2022-09-25T06:35:26;97291.19;;;15.55;83.14
9709;BME280;4893;42.024;23.098;2022-09-25T06:37:57;97290.19;;;15.56;79.08
9709;BME280;4893;42.024;23.098;2022-09-25T06:40:24;97281.81;;;15.32;79.76
9709;BME280;4893;42.024;23.098;2022-09-25T06:42:59;97277.59;;;15.85;83.08
9709;BME280;4893;42.024;23.098;2022-09-25T06:45:25;97274.00;;;16.19;80.09
9709;BME280;4893;42.024;23.098;2022-09-25T06:48:07;97292.97;;;16.40;78.80
9709;BME280;4893;42.024;23.098;2022-09-25T06:50:43;97280.63;;;16.80;77.37
9709;BME280;4893;42.024;23.098;2022-09-25T06:53:10;97284.41;;;17.04;73.45
9709;BME280;4893;42.024;23.098;2022-09-25T06:55:36;97283.94;;;17.26;72.80
9709;BME280;4893;42.024;23.098;2022-09-25T06:58:03;97286.69;;;17.51;69.38
9709;BME280;4893;42.024;23.098;2022-09-25T07:00:30;97273.66;;;17.25;70.26
9709;BME280;4893;42.024;23.098;2022-09-25T07:02:57;97274.53;;;16.93;70.74
9709;BME280;4893;42.024;23.098;2022-09-25T07:05:41;97257.34;;;17.10;68.91
9709;BME280;4893;42.024;23.098;2022-09-25T07:08:11;97271.63;;;17.20;70.03
9709;BME280;4893;42.024;23.098;2022-09-25T07:10:47;97267.72;;;17.49;67.01
9709;BME280;4893;42.024;23.098;2022-09-25T07:13:13;97276.56;;;17.54;70.79
9709;BME280;4893;42.024;23.098;2022-09-25T07:15:39;97288.25;;;17.65;74.34
9709;BME280;4893;42.024;23.098;2022-09-25T07:18:04;97278.94;;;18.00;67.48
9709;BME280;4893;42.024;23.098;2022-09-25T07:20:29;97284.09;;;17.82;70.92
9709;BME280;4893;42.024;23.098;2022-09-25T07:22:59;97282.84;;;17.91;66.08
9709;BME280;4893;42.024;23.098;2022-09-25T07:25:29;97283.34;;;17.75;72.43
9709;BME280;4893;42.024;23.098;2022-09-25T07:27:56;97275.16;;;17.89;72.35
9709;BME280;4893;42.024;23.098;2022-09-25T07:30:21;97290.38;;;18.12;67.44
9709;BME280;4893;42.024;23.098;2022-09-25T07:32:47;97285.25;;;18.24;64.13
9709;BME280;4893;42.024;23.098;2022-09-25T07:35:15;97294.63;;;18.38;68.92
9709;BME280;4893;42.024;23.098;2022-09-25T07:37:42;97292.59;;;18.46;64.63
9709;BME280;4893;42.024;23.098;2022-09-25T07:40:08;97297.59;;;18.54;64.92
9709;BME280;4893;42.024;23.098;2022-09-25T07:42:36;97290.28;;;18.74;65.21
9709;BME280;4893;42.024;23.098;2022-09-25T07:45:02;97280.16;;;18.96;64.76
9709;BME280;4893;42.024;23.098;2022-09-25T07:47:33;97284.09;;;19.05;64.24
9709;BME280;4893;42.024;23.098;2022-09-25T07:49:59;97288.53;;;19.11;64.72
9709;BME280;4893;42.024;23.098;2022-09-25T07:52:24;97274.16;;;19.25;64.46
9709;BME280;4893;42.024;23.098;2022-09-25T07:54:49;97265.91;;;19.40;63.49
9709;BME280;4893;42.024;23.098;2022-09-25T07:57:17;97255.41;;;19.69;62.93
9709;BME280;4893;42.024;23.098;2022-09-25T07:59:45;97256.75;;;20.01;61.02
9709;BME280;4893;42.024;23.098;2022-09-25T08:02:11;97250.59;;;19.78;61.53
9709;BME280;4893;42.024;23.098;2022-09-25T08:04:36;97233.91;;;19.84;61.19
9709;BME280;4893;42.024;23.098;2022-09-25T08:07:02;97225.00;;;20.08;60.65
9709;BME280;4893;42.024;23.098;2022-09-25T08:09:27;97228.28;;;20.33;61.36
9709;BME280;4893;42.024;23.098;2022-09-25T08:11:52;97228.97;;;20.63;58.46
9709;BME280;4893;42.024;23.098;2022-09-25T08:14:19;97229.44;;;20.37;58.91
9709;BME280;4893;42.024;23.098;2022-09-25T08:16:54;97233.09;;;20.24;58.52
9709;BME280;4893;42.024;23.098;2022-09-25T08:19:20;97210.84;;;20.20;62.17
9709;BME280;4893;42.024;23.098;2022-09-25T08:21:48;97202.47;;;20.35;61.50
9709;BME280;4893;42.024;23.098;2022-09-25T08:24:14;97204.88;;;20.48;65.47
9709;BME280;4893;42.024;23.098;2022-09-25T08:26:40;97199.47;;;20.66;59.85
9709;BME280;4893;42.024;23.098;2022-09-25T08:29:06;97194.78;;;20.68;61.62
9709;BME280;4893;42.024;23.098;2022-09-25T08:31:33;97186.75;;;20.63;60.76
9709;BME280;4893;42.024;23.098;2022-09-25T08:33:59;97173.31;;;20.76;61.04
9709;BME280;4893;42.024;23.098;2022-09-25T08:36:25;97175.69;;;20.89;62.24
9709;BME280;4893;42.024;23.098;2022-09-25T08:38:51;97182.88;;;21.17;59.04
9709;BME280;4893;42.024;23.098;2022-09-25T08:41:29;97163.00;;;21.14;64.02
9709;BME280;4893;42.024;23.098;2022-09-25T08:44:00;97175.75;;;21.45;56.69
9709;BME280;4893;42.024;23.098;2022-09-25T08:46:41;97181.63;;;21.64;58.79
9709;BME280;4893;42.024;23.098;2022-09-25T08:52:25;97172.56;;;21.32;64.58
9709;BME280;4893;42.024;23.098;2022-09-25T08:54:56;97156.81;;;21.37;59.51
9709;BME280;4893;42.024;23.098;2022-09-25T08:59:56;97176.59;;;21.62;59.39
9709;BME280;4893;42.024;23.098;2022-09-25T09:02:36;97157.22;;;21.73;58.62
9709;BME280;4893;42.024;23.098;2022-09-25T09:05:12;97159.50;;;21.98;63.85
9709;BME280;4893;42.024;23.098;2022-09-25T09:07:45;97152.34;;;22.15;55.90
9709;BME280;4893;42.024;23.098;2022-09-25T09:12:45;97150.44;;;22.49;56.23
9709;BME280;4893;42.024;23.098;2022-09-25T09:15:33;97144.22;;;22.38;58.27
9709;BME280;4893;42.024;23.098;2022-09-25T09:18:04;97143.41;;;22.38;60.75
9709;BME280;4893;42.024;23.098;2022-09-25T09:20:45;97141.66;;;22.27;56.02
9709;BME280;4893;42.024;23.098;2022-09-25T09:23:18;97136.38;;;22.27;58.90
9709;BME280;4893;42.024;23.098;2022-09-25T09:25:59;97136.94;;;22.67;56.49
9709;BME280;4893;42.024;23.098;2022-09-25T09:31:55;97119.53;;;23.41;59.79
9709;BME280;4893;42.024;23.098;2022-09-25T09:43:23;97122.38;;;23.92;50.41
9709;BME280;4893;42.024;23.098;2022-09-25T09:46:07;97124.25;;;24.33;47.29
9709;BME280;4893;42.024;23.098;2022-09-25T09:48:52;97125.94;;;24.49;46.09
9709;BME280;4893;42.024;23.098;2022-09-25T09:51:31;97110.06;;;24.59;47.25
9709;BME280;4893;42.024;23.098;2022-09-25T09:56:50;97111.47;;;24.67;44.60
9709;BME280;4893;42.024;23.098;2022-09-25T09:59:21;97115.38;;;24.59;44.29
9709;BME280;4893;42.024;23.098;2022-09-25T10:01:58;97114.84;;;24.62;44.53
9709;BME280;4893;42.024;23.098;2022-09-25T10:04:29;97121.22;;;24.56;42.65
9709;BME280;4893;42.024;23.098;2022-09-25T10:07:13;97111.03;;;24.43;43.23
9709;BME280;4893;42.024;23.098;2022-09-25T10:09:48;97113.59;;;23.92;43.55
9709;BME280;4893;42.024;23.098;2022-09-25T10:14:45;97095.22;;;23.80;45.11
9709;BME280;4893;42.024;23.098;2022-09-25T10:17:12;97085.88;;;23.73;44.99
9709;BME280;4893;42.024;23.098;2022-09-25T10:19:56;97091.91;;;23.63;44.70
9709;BME280;4893;42.024;23.098;2022-09-25T10:22:27;97080.06;;;23.76;45.50
9709;BME280;4893;42.024;23.098;2022-09-25T10:24:58;97084.09;;;23.83;43.26
9709;BME280;4893;42.024;23.098;2022-09-25T10:27:30;97087.00;;;23.82;43.63
9709;BME280;4893;42.024;23.098;2022-09-25T10:30:03;97086.34;;;23.65;43.45
9709;BME280;4893;42.024;23.098;2022-09-25T10:35:28;97065.66;;;23.67;44.01
9709;BME280;4893;42.024;23.098;2022-09-25T10:37:57;97072.47;;;23.89;41.54
9709;BME280;4893;42.024;23.098;2022-09-25T10:40:37;97061.19;;;24.04;44.03
9709;BME280;4893;42.024;23.098;2022-09-25T10:43:22;97056.75;;;24.19;41.08
9709;BME280;4893;42.024;23.098;2022-09-25T10:48:36;97067.72;;;24.33;40.02
9709;BME280;4893;42.024;23.098;2022-09-25T10:51:21;97060.47;;;24.18;40.86
9709;BME280;4893;42.024;23.098;2022-09-25T10:56:34;97045.81;;;24.11;40.30
9709;BME280;4893;42.024;23.098;2022-09-25T10:59:09;97056.03;;;24.34;40.95
9709;BME280;4893;42.024;23.098;2022-09-25T11:01:40;97054.22;;;24.44;40.53
9709;BME280;4893;42.024;23.098;2022-09-25T11:04:27;97050.44;;;24.30;40.07
9709;BME280;4893;42.024;23.098;2022-09-25T11:07:03;97050.88;;;24.12;40.25
9709;BME280;4893;42.024;23.098;2022-09-25T11:09:30;97042.91;;;24.12;40.41
9709;BME280;4893;42.024;23.098;2022-09-25T11:12:11;97050.38;;;24.15;39.01
9709;BME280;4893;42.024;23.098;2022-09-25T11:14:43;96981.53;;;23.62;38.42
9709;BME280;4893;42.024;23.098;2022-09-25T11:17:32;97035.94;;;24.01;39.56
9709;BME280;4893;42.024;23.098;2022-09-25T11:22:46;97038.00;;;23.94;40.00
9709;BME280;4893;42.024;23.098;2022-09-25T11:25:15;97033.28;;;24.01;41.32
9709;BME280;4893;42.024;23.098;2022-09-25T11:30:45;97025.69;;;24.15;42.12
9709;BME280;4893;42.024;23.098;2022-09-25T11:38:42;97018.03;;;24.33;40.81
9709;BME280;4893;42.024;23.098;2022-09-25T11:47:05;97016.06;;;24.04;40.55
9709;BME280;4893;42.024;23.098;2022-09-25T11:49:36;97019.72;;;23.98;40.46
9709;BME280;4893;42.024;23.098;2022-09-25T12:14:21;96995.78;;;23.88;41.62
9709;BME280;4893;42.024;23.098;2022-09-25T12:23:32;96993.03;;;23.73;43.09
9709;BME280;4893;42.024;23.098;2022-09-25T12:26:38;96982.41;;;23.73;43.84
9709;BME280;4893;42.024;23.098;2022-09-25T12:29:07;96980.31;;;23.75;43.25
9709;BME280;4893;42.024;23.098;2022-09-25T12:40:31;96961.25;;;23.83;44.24
9709;BME280;4893;42.024;23.098;2022-09-25T12:45:40;96941.38;;;23.90;44.43
9709;BME280;4893;42.024;23.098;2022-09-25T12:48:17;96949.97;;;24.02;43.25
9709;BME280;4893;42.024;23.098;2022-09-25T12:53:52;96930.84;;;24.00;42.41
9709;BME280;4893;42.024;23.098;2022-09-25T12:56:25;96931.91;;;24.04;42.71
9709;BME280;4893;42.024;23.098;2022-09-25T13:07:18;96928.78;;;24.17;43.15
9709;BME280;4893;42.024;23.098;2022-09-25T13:09:53;96918.69;;;24.14;43.17
9709;BME280;4893;42.024;23.098;2022-09-25T13:12:34;96926.38;;;24.11;43.29
9709;BME280;4893;42.024;23.098;2022-09-25T13:15:21;96920.00;;;24.07;41.96
9709;BME280;4893;42.024;23.098;2022-09-25T13:17:54;96918.13;;;24.02;42.69
9709;BME280;4893;42.024;23.098;2022-09-25T13:26:01;96920.97;;;23.91;42.39
9709;BME280;4893;42.024;23.098;2022-09-25T13:28:52;96908.22;;;23.88;43.29
9709;BME280;4893;42.024;23.098;2022-09-25T13:31:30;96902.66;;;23.89;41.72
9709;BME280;4893;42.024;23.098;2022-09-25T13:45:00;96896.47;;;23.79;42.06
9709;BME280;4893;42.024;23.098;2022-09-25T14:00:50;96889.81;;;23.66;43.24
9709;BME280;4893;42.024;23.098;2022-09-25T14:03:38;96895.06;;;23.61;43.98
9709;BME280;4893;42.024;23.098;2022-09-25T14:06:25;96885.22;;;23.52;43.60
9709;BME280;4893;42.024;23.098;2022-09-25T14:08:56;96887.03;;;23.46;43.40
9709;BME280;4893;42.024;23.098;2022-09-25T14:11:27;96890.16;;;23.38;43.91
9709;BME280;4893;42.024;23.098;2022-09-25T14:13:58;96889.38;;;23.43;43.78
9709;BME280;4893;42.024;23.098;2022-09-25T14:19:19;96881.88;;;23.29;44.09
9709;BME280;4893;42.024;23.098;2022-09-25T14:21:46;96894.28;;;23.24;44.09
9709;BME280;4893;42.024;23.098;2022-09-25T14:24:21;96884.94;;;23.11;44.33
9709;BME280;4893;42.024;23.098;2022-09-25T14:26:49;96889.56;;;23.26;43.71
9709;BME280;4893;42.024;23.098;2022-09-25T14:29:25;96884.22;;;23.21;44.20
9709;BME280;4893;42.024;23.098;2022-09-25T14:35:28;96885.22;;;23.15;44.82
9709;BME280;4893;42.024;23.098;2022-09-25T14:38:17;96883.31;;;23.10;45.33
9709;BME280;4893;42.024;23.098;2022-09-25T14:46:57;96878.06;;;22.79;47.49
9709;BME280;4893;42.024;23.098;2022-09-25T14:49:32;96893.41;;;22.77;47.04
9709;BME280;4893;42.024;23.098;2022-09-25T14:52:06;96894.47;;;22.76;47.17
9709;BME280;4893;42.024;23.098;2022-09-25T14:54:36;96889.63;;;22.68;47.68
9709;BME280;4893;42.024;23.098;2022-09-25T14:57:05;96886.94;;;22.63;47.77
9709;BME280;4893;42.024;23.098;2022-09-25T14:59:46;96889.84;;;22.61;47.86
9709;BME280;4893;42.024;23.098;2022-09-25T15:02:27;96895.66;;;22.63;47.31
9709;BME280;4893;42.024;23.098;2022-09-25T15:05:05;96888.41;;;22.54;47.97
9709;BME280;4893;42.024;23.098;2022-09-25T15:07:41;96886.03;;;22.52;48.59
9709;BME280;4893;42.024;23.098;2022-09-25T15:10:30;96892.34;;;22.51;47.97
9709;BME280;4893;42.024;23.098;2022-09-25T15:13:17;96885.56;;;22.60;48.28
9709;BME280;4893;42.024;23.098;2022-09-25T15:15:49;96884.63;;;22.45;48.59
9709;BME280;4893;42.024;23.098;2022-09-25T15:18:39;96898.09;;;22.43;49.13
9709;BME280;4893;42.024;23.098;2022-09-25T15:21:27;96891.19;;;22.42;49.14
9709;BME280;4893;42.024;23.098;2022-09-25T15:24:04;96892.25;;;22.41;49.37
9709;BME280;4893;42.024;23.098;2022-09-25T15:26:32;96885.00;;;22.32;51.48
9709;BME280;4893;42.024;23.098;2022-09-25T15:29:12;96884.00;;;22.38;49.45
9709;BME280;4893;42.024;23.098;2022-09-25T15:31:41;96884.50;;;22.35;49.65
9709;BME280;4893;42.024;23.098;2022-09-25T15:34:12;96879.41;;;22.28;49.77
9709;BME280;4893;42.024;23.098;2022-09-25T15:36:38;96876.72;;;22.23;49.54
9709;BME280;4893;42.024;23.098;2022-09-25T15:39:15;96871.00;;;22.10;49.71
9709;BME280;4893;42.024;23.098;2022-09-25T15:41:42;96873.66;;;22.10;49.56
9709;BME280;4893;42.024;23.098;2022-09-25T15:44:25;96872.00;;;22.04;50.14
9709;BME280;4893;42.024;23.098;2022-09-25T15:46:59;96875.28;;;21.89;50.36
9709;BME280;4893;42.024;23.098;2022-09-25T15:49:34;96877.09;;;21.88;51.01
9709;BME280;4893;42.024;23.098;2022-09-25T15:54:44;96877.09;;;21.67;51.78
9709;BME280;4893;42.024;23.098;2022-09-25T15:57:12;96868.78;;;21.58;52.52
9709;BME280;4893;42.024;23.098;2022-09-25T15:59:43;96876.91;;;21.52;53.17
9709;BME280;4893;42.024;23.098;2022-09-25T16:02:29;96869.47;;;21.49;53.48
9709;BME280;4893;42.024;23.098;2022-09-25T16:05:16;96867.88;;;21.48;53.33
9709;BME280;4893;42.024;23.098;2022-09-25T16:07:44;96872.78;;;21.39;53.91
9709;BME280;4893;42.024;23.098;2022-09-25T16:17:59;96882.78;;;21.21;54.92
9709;BME280;4893;42.024;23.098;2022-09-25T16:20:31;96878.66;;;21.08;55.77
9709;BME280;4893;42.024;23.098;2022-09-25T16:22:59;96866.00;;;20.94;56.14
9709;BME280;4893;42.024;23.098;2022-09-25T16:25:27;96878.00;;;21.01;56.92
9709;BME280;4893;42.024;23.098;2022-09-25T16:28:14;96848.41;;;20.66;58.48
9709;BME280;4893;42.024;23.098;2022-09-25T16:30:57;96879.03;;;20.84;58.05
9709;BME280;4893;42.024;23.098;2022-09-25T16:33:36;96882.31;;;20.74;59.00
9709;BME280;4893;42.024;23.098;2022-09-25T16:36:11;96889.34;;;20.68;59.84